• Join FlightAware (Why Join?)
  • Login
  • US Flag 
10:21AM EST


 

Airport Tracker/Info


-or-


 

Live Flight TrackerFlight Track Log ✈ UAL623 ✈ 13-May-2013 ✈ KCLE - KORD

Flight Track Log - Related Links

Times and Time Zones

All times are in EDT time to prevent confusion due to time zone crossing. See the UAL623 flight status page for this flight to view local times or setup timezone preferences in your user account.

Time Position Orientation Groundspeed Altitude Reporting Facility
EDT Latitude Longitude Course Direction KTS MPH feet Rate Location/Type
04:13PM 41.1164 -81.7075 263° West 299 344 9,900  Level Cleveland Center
04:14PM 41.3961 -81.8814 335° Northwest 157 181 1,700 -2,280 Descending Cleveland Center
04:15PM 41.3950 -81.9728 269° West 224 258 4,500 2,340 Climbing Cleveland Center
04:16PM 41.3903 -82.0142 261° West 244 281 6,200 3,300 Climbing Cleveland Center
04:17PM 41.3767 -82.1050 259° West 259 298 9,800 3,600 Climbing Cleveland Center
04:18PM 41.3371 -82.3093 263° West  Level FlightAware Approximate
04:18PM 41.3586 -82.2042 256° West 264 304 13,400  Level Cleveland Center
04:19PM 41.3425 -82.3089 258° West 280 322 16,500 2,760 Climbing Cleveland Center
04:20PM 41.3261 -82.4192 259° West 300 345 19,000 2,400 Climbing Cleveland Center
04:21PM 41.3075 -82.5292 257° West 305 351 21,300 2,160 Climbing Cleveland Center
04:22PM 41.2908 -82.6586 260° West 317 365 23,400 2,100 Climbing Cleveland Center
04:23PM 41.2739 -82.7797 259° West 336 387 25,500 1,740 Climbing Cleveland Center
04:24PM 41.2567 -82.9061 260° West 336 387 26,900 1,500 Climbing Cleveland Center
04:25PM 41.2583 -83.0331 271° West 343 395 28,500 1,500 Climbing Cleveland Center
04:26PM 41.2933 -83.1422 293° West 324 373 29,900 720 Climbing Cleveland Center
04:27PM 41.3264 -83.2514 292° West 324 373 30,000  Climbing Cleveland Center
04:28PM 41.3653 -83.3719 293° West 336 387 29,900 -60 Descending Cleveland Center
04:29PM 41.4078 -83.5042 293° West 360 414 29,900  Level Cleveland Center
04:30PM 41.4289 -83.6517 281° West 383 441 30,000  Climbing Cleveland Center
04:31PM 41.4189 -83.7925 265° West 410 472 30,000  Level Cleveland Center
04:33PM 41.3603 -84.0647 254° West 454 522 30,000 -60 Level Chicago Center
04:34PM 41.3439 -84.2236 262° West 432 497 29,900 -60 Descending Chicago Center
04:35PM 41.3406 -84.3808 268° West 424 488 29,900  Level Chicago Center
04:36PM 41.3361 -84.5403 268° West 430 495 30,000  Climbing Chicago Center
04:37PM 41.3314 -84.6994 268° West 430 495 30,000  Level Chicago Center
04:38PM 41.3253 -84.8886 268° West 426 490 30,000 -60 Level Chicago Center
04:39PM 41.3239 -85.0467 269° West 426 490 29,900 -60 Descending Chicago Center
04:40PM 41.3200 -85.2047 268° West 426 490 29,900  Level Chicago Center
04:41PM 41.3139 -85.3650 267° West 428 493 29,900  Level Chicago Center
04:42PM 41.3064 -85.5264 267° West 432 497 29,900 -720 Level Chicago Center
04:43PM 41.2992 -85.6900 267° West 436 502 28,500 -1,860 Descending Chicago Center
04:44PM 41.2917 -85.8492 266° West 429 494 26,100 -1,800 Descending Chicago Center
04:45PM 41.2839 -86.0308 267° West 408 470 24,900 -540 Descending Chicago Center
04:46PM 41.3158 -86.1667 287° West 381 438 25,000  Climbing Chicago Center
04:47PM 41.3486 -86.3003 288° West 380 437 24,900 -60 Descending Chicago Center
04:48PM 41.3836 -86.4336 289° West 381 438 24,900  Level Chicago Center
04:49PM 41.4161 -86.5689 288° West 384 442 24,900 -1,260 Level Chicago Center
04:50PM 41.4489 -86.7031 288° West 382 440 22,400 -2,520 Descending Chicago Center
04:51PM 41.4831 -86.8406 288° West 369 425 19,700 -2,460 Descending Chicago Center
04:52PM 41.5139 -86.9656 288° West 359 413 17,400 -2,640 Descending Chicago Center
04:53PM 41.5489 -87.1114 288° West 349 402 14,300 -2,820 Descending Chicago Center
04:54PM 41.5667 -87.1833 288° West 336 387 13,000 -1,440 Descending Chicago TRACON
04:55PM 41.6000 -87.2833 294° West 315 362 12,000 -660 Descending Chicago TRACON
04:55PM 41.6253 -87.3244 309° West 323 372 12,000  Level Chicago Center
04:56PM 41.6814 -87.4142 310° West 319 367 12,000 -420 Level Chicago Center
04:58PM 41.7472 -87.5211 310° West 314 361 11,200 -1,020 Descending Chicago Center
04:59PM 41.8008 -87.6050 311° West 302 348 10,000 -1,200 Descending Chicago Center
04:59PM 41.8333 -87.6500 314° West 263 303 9,400 -1,260 Descending Chicago TRACON
05:00PM 41.8667 -87.7333 298° West 255 293 8,200 -720 Descending Chicago TRACON
05:01PM 41.8667 -87.8167 270° West 227 261 8,000 -660 Descending Chicago TRACON
05:02PM 41.9000 -87.8833 304° West 214 246 6,900 -600 Descending Chicago TRACON
05:03PM 41.9167 -87.9500 289° West 218 251 6,900  Level Chicago TRACON
05:05PM 41.9092 -88.0675 265° West 191 220 6,900  Level Chicago Center
05:05PM 41.9000 -88.0833 232° Southwest 188 216 7,000 60 Climbing Chicago TRACON
05:06PM 41.8908 -88.1328 256° West 189 217 7,000 -60 Level Chicago Center
05:07PM 41.8914 -88.2008 271° West 186 214 6,900 -660 Descending Chicago Center
05:08PM 41.8967 -88.2775 275° West 181 208 5,700 -960 Descending Chicago Center
05:09PM 41.9481 -88.2781 360° North 192 221 5,000 -420 Descending Chicago Center
05:10PM 41.9664 -88.2158 68° East 194 223 4,900 -660 Descending Chicago Center
05:11PM 41.9689 -88.1453 87° East 193 222 3,700 -1,080 Descending Chicago Center
05:12PM 41.9686 -88.0756 90° East 190 219 2,700 -1,020 Descending Chicago Center